createdAt,value
2022-09-04T00:00:27.881Z,5.20
2022-09-04T00:03:25.889Z,5.22
2022-09-04T00:06:01.155Z,4.97
2022-09-04T00:08:58.738Z,5.10
2022-09-04T00:11:52.239Z,5.10
2022-09-04T00:14:39.166Z,5.25
2022-09-04T00:17:17.729Z,5.45
2022-09-04T00:20:01.609Z,5.00
2022-09-04T00:22:43.690Z,5.05
2022-09-04T00:25:24.413Z,4.60
2022-09-04T00:28:06.551Z,4.95
2022-09-04T00:30:56.884Z,5.78
2022-09-04T00:33:37.285Z,5.47
2022-09-04T00:36:10.164Z,5.53
2022-09-04T00:38:47.622Z,5.35
2022-09-04T00:41:34.219Z,5.55
2022-09-04T00:44:27.165Z,5.85
2022-09-04T00:47:35.465Z,5.63
2022-09-04T00:50:30.376Z,5.80
2022-09-04T00:53:37.603Z,6.55
2022-09-04T00:56:30.929Z,5.47
2022-09-04T00:59:20.779Z,5.60
2022-09-04T01:01:56.848Z,6.85
2022-09-04T01:05:07.390Z,6.20
2022-09-04T01:07:57.875Z,5.85
2022-09-04T01:10:43.936Z,5.68
2022-09-04T01:13:36.653Z,6.03
2022-09-04T01:16:16.354Z,5.75
2022-09-04T01:19:01.816Z,6.10
2022-09-04T01:22:09.296Z,6.03
2022-09-04T01:25:02.629Z,6.50
2022-09-04T01:27:45.949Z,6.17
2022-09-04T01:30:24.346Z,6.15
2022-09-04T01:33:10.073Z,6.45
2022-09-04T01:35:52.565Z,6.25
2022-09-04T01:38:28.720Z,6.18
2022-09-04T01:41:09.499Z,6.38
2022-09-04T01:43:56.366Z,5.65
2022-09-04T01:47:01.067Z,7.28
2022-09-04T01:49:40.431Z,6.40
2022-09-04T01:52:37.542Z,6.18
2022-09-04T01:55:21.730Z,6.50
2022-09-04T01:58:23.937Z,5.97
2022-09-04T02:01:14.764Z,6.60
2022-09-04T02:04:09.554Z,6.57
2022-09-04T02:06:51.827Z,6.43
2022-09-04T02:09:37.306Z,6.28
2022-09-04T02:12:22.426Z,6.57
2022-09-04T02:15:07.404Z,6.38
2022-09-04T02:17:59.451Z,6.80
2022-09-04T02:20:44.689Z,6.30
2022-09-04T02:23:29.668Z,7.93
2022-09-04T02:26:10.270Z,8.90
2022-09-04T02:28:57.394Z,7.68
2022-09-04T02:31:38.926Z,8.27
2022-09-04T02:34:26.707Z,6.90
2022-09-04T02:37:06.121Z,7.03
2022-09-04T02:39:48.383Z,6.63
2022-09-04T02:42:32.594Z,7.45
2022-09-04T02:45:17.011Z,7.85
2022-09-04T02:48:02.523Z,8.13
2022-09-04T02:50:54.805Z,7.75
2022-09-04T02:53:40.898Z,9.15
2022-09-04T02:56:30.371Z,7.93
2022-09-04T02:59:21.764Z,8.18
2022-09-04T03:02:02.837Z,7.75
2022-09-04T03:04:46.157Z,8.93
2022-09-04T03:07:31.297Z,11.38
2022-09-04T03:10:16.036Z,12.10
2022-09-04T03:12:57.122Z,10.52
2022-09-04T03:15:45.707Z,10.88
2022-09-04T03:18:25.197Z,11.63
2022-09-04T03:21:06.373Z,10.75
2022-09-04T03:23:55.280Z,11.43
2022-09-04T03:26:33.618Z,12.88
2022-09-04T03:29:19.855Z,15.52
2022-09-04T03:32:13.522Z,26.10
2022-09-04T03:35:03.266Z,20.85
2022-09-04T03:38:17.010Z,17.98
2022-09-04T03:41:05.961Z,14.10
2022-09-04T03:44:09.130Z,13.73
2022-09-04T03:47:07.236Z,16.70
2022-09-04T03:49:55.076Z,16.92
2022-09-04T03:52:40.469Z,15.93
2022-09-04T03:56:20.870Z,26.85
2022-09-04T03:59:10.898Z,52.95
2022-09-04T04:02:04.945Z,21.05
2022-09-04T04:05:19.154Z,16.88
2022-09-04T04:08:07.058Z,14.98
2022-09-04T04:10:52.194Z,14.65
2022-09-04T04:13:39.270Z,15.13
2022-09-04T04:16:56.526Z,18.63
2022-09-04T04:20:05.104Z,20.38
2022-09-04T04:23:25.778Z,16.52
2022-09-04T04:26:08.578Z,18.02
2022-09-04T04:28:59.857Z,16.02
2022-09-04T04:32:09.991Z,14.82
2022-09-04T04:34:54.171Z,13.15
2022-09-04T04:37:35.098Z,13.55
2022-09-04T04:40:14.476Z,13.40
2022-09-04T04:42:51.559Z,13.25
2022-09-04T04:45:43.002Z,12.95
2022-09-04T04:48:50.167Z,13.63
2022-09-04T04:51:42.339Z,12.85
2022-09-04T04:54:31.439Z,12.52
2022-09-04T04:57:12.393Z,13.82
2022-09-04T04:59:52.040Z,13.75
2022-09-04T05:02:32.345Z,12.77
2022-09-04T05:05:16.459Z,13.10
2022-09-04T05:07:55.159Z,13.82
2022-09-04T05:10:34.922Z,12.55
2022-09-04T05:13:19.973Z,13.10
2022-09-04T05:16:09.916Z,11.20
2022-09-04T05:18:54.769Z,11.32
2022-09-04T05:21:38.221Z,10.95
2022-09-04T05:24:22.857Z,11.82
2022-09-04T05:26:59.618Z,10.27
2022-09-04T05:29:37.562Z,10.73
2022-09-04T05:32:20.364Z,11.50
2022-09-04T05:35:07.321Z,11.18
2022-09-04T05:37:53.545Z,10.20
2022-09-04T05:40:32.636Z,9.98
2022-09-04T05:43:18.023Z,9.95
2022-09-04T05:46:10.131Z,10.30
2022-09-04T05:48:47.527Z,10.73
2022-09-04T05:52:11.407Z,9.63
2022-09-04T05:55:09.830Z,8.60
2022-09-04T05:57:59.334Z,9.15
2022-09-04T06:00:45.749Z,9.05
2022-09-04T06:03:55.149Z,9.00
2022-09-04T06:06:45.481Z,9.23
2022-09-04T06:09:53.608Z,9.23
2022-09-04T06:13:16.427Z,10.15
2022-09-04T06:16:04.665Z,9.90
2022-09-04T06:19:01.777Z,10.40
2022-09-04T06:22:24.617Z,11.15
2022-09-04T06:25:22.232Z,9.82
2022-09-04T06:28:24.930Z,11.20
2022-09-04T06:31:08.576Z,9.73
2022-09-04T06:34:06.377Z,9.02
2022-09-04T06:36:57.633Z,8.20
2022-09-04T06:39:57.138Z,7.95
2022-09-04T06:42:40.585Z,11.95
2022-09-04T06:45:48.581Z,7.90
2022-09-04T06:48:38.557Z,9.98
2022-09-04T06:51:24.283Z,11.32
2022-09-04T06:54:05.789Z,8.95
2022-09-04T06:56:59.814Z,8.57
2022-09-04T07:02:29.639Z,7.95
2022-09-04T07:05:13.393Z,8.60
2022-09-04T07:07:55.038Z,8.88
2022-09-04T07:10:31.744Z,7.53
2022-09-04T07:13:26.697Z,6.90
2022-09-04T07:16:45.032Z,6.85
2022-09-04T07:19:46.742Z,7.65
2022-09-04T07:22:59.532Z,7.03
2022-09-04T07:25:51.117Z,6.57
2022-09-04T07:28:39.827Z,7.20
2022-09-04T07:31:18.166Z,6.22
2022-09-04T07:33:58.944Z,6.40
2022-09-04T07:36:43.292Z,6.32
2022-09-04T07:39:26.444Z,6.53
2022-09-04T07:42:08.086Z,6.65
2022-09-04T07:44:47.169Z,6.78
2022-09-04T07:47:29.090Z,6.45
2022-09-04T07:50:08.110Z,8.10
2022-09-04T07:53:11.050Z,7.20
2022-09-04T07:55:50.522Z,5.80
2022-09-04T07:58:55.113Z,5.47
2022-09-04T08:01:49.200Z,5.47
2022-09-04T08:04:44.227Z,4.72
2022-09-04T08:07:24.794Z,4.28
2022-09-04T08:10:17.477Z,4.78
2022-09-04T08:13:08.984Z,5.13
2022-09-04T08:15:50.189Z,4.40
2022-09-04T08:18:42.323Z,3.75
2022-09-04T08:21:24.299Z,4.05
2022-09-04T08:24:49.789Z,4.47
2022-09-04T08:27:34.719Z,4.20
2022-09-04T08:30:15.756Z,4.78
2022-09-04T08:33:07.095Z,5.00
2022-09-04T08:35:38.798Z,5.07
2022-09-04T08:38:34.782Z,5.00
2022-09-04T08:41:33.743Z,4.80
2022-09-04T08:44:42.189Z,5.03
2022-09-04T08:47:46.768Z,4.45
2022-09-04T08:50:37.600Z,5.07
2022-09-04T08:53:33.654Z,4.57
2022-09-04T08:56:22.258Z,3.95
2022-09-04T08:59:35.921Z,3.80
2022-09-04T09:02:29.644Z,3.67
2022-09-04T09:08:14.954Z,3.72
2022-09-04T09:11:14.005Z,3.25
2022-09-04T09:14:04.535Z,3.20
2022-09-04T09:16:46.180Z,3.17
2022-09-04T09:19:48.866Z,4.68
2022-09-04T09:22:40.350Z,3.58
2022-09-04T09:25:20.893Z,3.42
2022-09-04T09:28:31.797Z,3.58
2022-09-04T09:31:41.645Z,3.38
2022-09-04T09:34:47.320Z,3.10
2022-09-04T09:38:04.462Z,3.42
2022-09-04T09:41:09.578Z,3.20
2022-09-04T09:44:05.399Z,3.25
2022-09-04T09:47:15.900Z,3.28
2022-09-04T09:50:32.152Z,9.00
2022-09-04T09:53:47.746Z,3.65
2022-09-04T09:56:53.985Z,3.05
2022-09-04T10:00:05.262Z,3.40
2022-09-04T10:03:09.926Z,3.53
2022-09-04T10:06:04.098Z,3.70
2022-09-04T10:09:09.161Z,2.95
2022-09-04T10:12:12.331Z,3.17
2022-09-04T10:15:25.552Z,3.05
2022-09-04T10:18:24.795Z,2.70
2022-09-04T10:21:32.288Z,4.32
2022-09-04T10:24:31.565Z,3.88
2022-09-04T10:27:43.202Z,3.22
2022-09-04T10:30:18.320Z,4.03
2022-09-04T10:33:11.838Z,3.85
2022-09-04T10:35:58.694Z,4.10
2022-09-04T10:38:37.176Z,3.38
2022-09-04T10:41:41.742Z,3.00
2022-09-04T10:44:44.382Z,3.42
2022-09-04T10:47:28.262Z,3.45
2022-09-04T10:50:24.080Z,2.75
2022-09-04T10:53:25.260Z,3.20
2022-09-04T10:56:23.766Z,2.63
2022-09-04T10:59:16.989Z,3.13
2022-09-04T11:02:13.611Z,3.75
2022-09-04T11:05:20.506Z,3.58
2022-09-04T11:08:20.088Z,3.10
2022-09-04T11:11:10.358Z,2.90
2022-09-04T11:14:19.509Z,3.92
2022-09-04T11:17:24.842Z,4.30
2022-09-04T11:20:32.949Z,3.85
2022-09-04T11:23:51.765Z,3.97
2022-09-04T11:27:05.961Z,3.85
2022-09-04T11:29:49.044Z,3.17
2022-09-04T11:32:52.049Z,3.33
2022-09-04T11:36:08.303Z,3.20
2022-09-04T11:39:11.120Z,3.28
2022-09-04T11:42:18.274Z,3.63
2022-09-04T11:45:21.472Z,3.70
2022-09-04T11:48:14.764Z,3.38
2022-09-04T11:51:01.718Z,2.78
2022-09-04T11:54:07.714Z,3.38
2022-09-04T11:56:53.767Z,3.60
2022-09-04T11:59:46.111Z,3.35
2022-09-04T12:02:32.967Z,2.90
2022-09-04T12:05:39.714Z,3.67
2022-09-04T12:08:28.624Z,3.10
2022-09-04T12:11:24.103Z,4.13
2022-09-04T12:14:15.565Z,4.30
2022-09-04T12:17:16.157Z,4.40
2022-09-04T12:20:09.875Z,4.63
2022-09-04T12:23:09.624Z,5.50
2022-09-04T12:26:22.112Z,6.00
2022-09-04T12:29:19.719Z,4.80
2022-09-04T12:32:33.022Z,4.60
2022-09-04T12:35:49.163Z,4.30
2022-09-04T12:38:38.691Z,3.83
2022-09-04T12:41:17.003Z,3.70
2022-09-04T12:44:01.946Z,4.20
2022-09-04T12:46:55.851Z,4.60
2022-09-04T12:52:39.699Z,3.83
2022-09-04T12:55:18.543Z,3.83
2022-09-04T12:58:05.079Z,3.88
2022-09-04T13:00:48.690Z,4.65
2022-09-04T13:03:27.575Z,5.22
2022-09-04T13:06:13.350Z,4.53
2022-09-04T13:09:01.123Z,4.55
2022-09-04T13:11:44.316Z,5.28
2022-09-04T13:14:46.720Z,5.22
2022-09-04T13:17:26.575Z,4.82
2022-09-04T13:20:10.009Z,5.05
2022-09-04T13:22:49.895Z,4.82
2022-09-04T13:25:35.590Z,4.68
2022-09-04T13:28:16.997Z,4.85
2022-09-04T13:31:00.213Z,4.65
2022-09-04T13:33:49.069Z,5.80
2022-09-04T13:36:32.531Z,4.55
2022-09-04T13:39:29.308Z,4.50
2022-09-04T13:42:45.749Z,4.22
2022-09-04T13:45:28.926Z,4.25
2022-09-04T13:48:03.296Z,4.38
2022-09-04T13:50:39.887Z,5.32
2022-09-04T13:53:18.372Z,4.63
2022-09-04T13:55:54.416Z,4.20
2022-09-04T13:58:31.280Z,4.97
2022-09-04T14:01:13.438Z,4.30
2022-09-04T14:03:47.419Z,3.70
2022-09-04T14:06:21.225Z,4.20
2022-09-04T14:09:04.612Z,4.72
2022-09-04T14:12:01.978Z,4.05
2022-09-04T14:15:00.264Z,3.80
2022-09-04T14:17:41.544Z,3.63
2022-09-04T14:20:22.381Z,3.67
2022-09-04T14:23:05.794Z,3.70
2022-09-04T14:25:43.097Z,3.53
2022-09-04T14:28:22.239Z,3.72
2022-09-04T14:32:06.695Z,3.78
2022-09-04T14:34:06.502Z,3.60
2022-09-04T14:36:46.613Z,3.50
2022-09-04T14:39:25.175Z,4.10
2022-09-04T14:42:20.200Z,3.63
2022-09-04T14:45:13.467Z,3.80
2022-09-04T14:47:53.897Z,3.13
2022-09-04T14:50:31.208Z,3.55
2022-09-04T14:53:06.333Z,2.75
2022-09-04T14:55:43.431Z,4.00
2022-09-04T14:58:21.600Z,3.67
2022-09-04T15:01:06.024Z,3.05
2022-09-04T15:03:42.990Z,3.35
2022-09-04T15:06:24.673Z,2.92
2022-09-04T15:08:58.069Z,2.92
2022-09-04T15:11:35.850Z,3.35
2022-09-04T15:14:12.583Z,3.10
2022-09-04T15:16:53.745Z,2.83
2022-09-04T15:19:36.896Z,3.05
2022-09-04T15:22:17.908Z,2.70
2022-09-04T15:24:56.110Z,2.55
2022-09-04T15:27:35.440Z,3.03
2022-09-04T15:30:10.379Z,3.53
2022-09-04T15:32:43.822Z,3.35
2022-09-04T15:35:24.665Z,2.90
2022-09-04T15:38:20.736Z,3.13
2022-09-04T15:41:17.936Z,3.10
2022-09-04T15:43:53.603Z,3.20
2022-09-04T15:46:33.287Z,3.63
2022-09-04T15:49:20.349Z,3.50
2022-09-04T15:51:56.938Z,3.67
2022-09-04T15:54:54.557Z,2.95
2022-09-04T15:57:36.383Z,2.85
2022-09-04T16:00:13.143Z,3.60
2022-09-04T16:02:55.245Z,3.95
2022-09-04T16:05:41.948Z,3.45
2022-09-04T16:08:23.905Z,3.60
2022-09-04T16:11:06.770Z,8.43
2022-09-04T16:13:48.538Z,6.47
2022-09-04T16:16:24.267Z,4.72
2022-09-04T16:19:21.196Z,4.28
2022-09-04T16:22:04.112Z,3.40
2022-09-04T16:24:43.082Z,3.05
2022-09-04T16:27:23.528Z,3.33
2022-09-04T16:30:01.857Z,3.65
2022-09-04T16:32:35.685Z,4.25
2022-09-04T16:35:12.909Z,3.22
2022-09-04T16:37:48.233Z,3.08
2022-09-04T16:40:29.835Z,3.58
2022-09-04T16:43:12.657Z,3.00
2022-09-04T16:45:52.241Z,3.40
2022-09-04T16:48:34.984Z,3.83
2022-09-04T16:51:34.689Z,3.00
2022-09-04T16:54:14.676Z,3.28
2022-09-04T16:56:50.815Z,3.83
2022-09-04T16:59:39.744Z,3.58
2022-09-04T17:02:22.249Z,2.70
2022-09-04T17:05:04.692Z,3.65
2022-09-04T17:07:41.645Z,3.20
2022-09-04T17:10:24.092Z,3.67
2022-09-04T17:13:01.823Z,3.70
2022-09-04T17:15:53.351Z,3.28
2022-09-04T17:18:27.373Z,4.38
2022-09-04T17:23:44.341Z,3.92
2022-09-04T17:29:12.479Z,3.35
2022-09-04T17:29:15.232Z,4.03
2022-09-04T17:29:56.234Z,3.50
2022-09-04T17:34:14.656Z,3.80
2022-09-04T17:40:36.550Z,3.97
2022-09-04T17:40:39.971Z,3.70
2022-09-04T17:41:52.062Z,4.30
2022-09-04T17:44:37.633Z,3.50
2022-09-04T17:47:24.094Z,3.75
2022-09-04T17:49:59.019Z,4.45
2022-09-04T17:52:31.788Z,3.90
2022-09-04T17:55:07.479Z,4.28
2022-09-04T17:57:56.738Z,3.83
2022-09-04T18:00:32.085Z,3.45
2022-09-04T18:03:09.163Z,4.25
2022-09-04T18:05:52.953Z,4.10
2022-09-04T18:08:32.896Z,3.70
2022-09-04T18:11:12.550Z,4.03
2022-09-04T18:13:48.164Z,3.67
2022-09-04T18:16:53.135Z,3.83
2022-09-04T18:19:37.030Z,4.00
2022-09-04T18:22:31.889Z,4.18
2022-09-04T18:25:15.990Z,3.83
2022-09-04T18:28:06.588Z,3.88
2022-09-04T18:37:06.722Z,4.25
2022-09-04T18:37:18.971Z,4.07
2022-09-04T18:37:48.000Z,3.90
2022-09-04T18:40:43.106Z,4.25
2022-09-04T18:50:34.957Z,4.32
2022-09-04T18:50:46.762Z,4.60
2022-09-04T18:52:30.407Z,4.35
2022-09-04T18:55:25.285Z,3.65
2022-09-04T18:58:20.758Z,4.65
2022-09-04T19:01:07.228Z,4.60
2022-09-04T19:03:52.747Z,4.38
2022-09-04T19:06:40.031Z,4.10
2022-09-04T19:09:22.275Z,4.03
2022-09-04T19:12:05.913Z,4.82
2022-09-04T19:17:26.037Z,4.25
2022-09-04T19:20:08.630Z,4.20
2022-09-04T19:22:54.245Z,4.43
2022-09-04T19:25:39.740Z,4.78
2022-09-04T19:28:22.581Z,5.90
2022-09-04T19:31:03.857Z,6.37
2022-09-04T19:33:46.183Z,6.07
2022-09-04T19:36:35.469Z,5.97
2022-09-04T19:45:57.427Z,6.90
2022-09-04T19:46:19.915Z,5.95
2022-09-04T19:49:21.430Z,6.25
2022-09-04T19:53:35.191Z,6.75
2022-09-04T19:55:23.988Z,7.75
2022-09-04T19:58:00.158Z,6.57
2022-09-04T20:03:31.039Z,5.70
2022-09-04T20:06:21.523Z,6.00
2022-09-04T20:08:58.403Z,5.40
2022-09-04T20:11:35.539Z,5.57
2022-09-04T20:14:15.416Z,5.10
2022-09-04T20:16:59.999Z,4.35
2022-09-04T20:19:39.013Z,5.18
2022-09-04T20:22:20.265Z,4.97
2022-09-04T20:25:01.280Z,4.47
2022-09-04T20:27:38.089Z,5.20
2022-09-04T20:30:17.043Z,5.28
2022-09-04T20:32:59.311Z,5.05
2022-09-04T20:35:37.827Z,5.53
2022-09-04T20:38:23.341Z,4.57
2022-09-04T20:40:59.768Z,6.50
2022-09-04T20:43:40.255Z,5.47
2022-09-04T20:48:59.562Z,5.15
2022-09-04T20:52:54.189Z,5.20
2022-09-04T20:53:05.583Z,6.15
2022-09-04T20:55:37.477Z,5.10
2022-09-04T21:03:22.694Z,5.95
2022-09-04T21:03:24.233Z,5.07
2022-09-04T21:04:42.821Z,5.97
2022-09-04T21:07:22.696Z,4.82
2022-09-04T21:10:05.883Z,6.75
2022-09-04T21:12:46.009Z,5.00
2022-09-04T21:15:29.950Z,5.78
2022-09-04T21:18:21.464Z,4.63
2022-09-04T21:21:20.468Z,6.15
2022-09-04T21:24:19.705Z,5.22
2022-09-04T21:27:15.968Z,5.07
2022-09-04T21:30:00.012Z,5.60
2022-09-04T21:32:48.570Z,4.93
2022-09-04T21:35:24.853Z,6.15
2022-09-04T21:38:07.520Z,5.90
2022-09-04T21:41:16.920Z,5.82
2022-09-04T21:44:21.323Z,6.22
2022-09-04T21:47:08.490Z,5.47
2022-09-04T21:50:23.289Z,5.97
2022-09-04T21:53:23.853Z,5.57
2022-09-04T21:58:58.628Z,6.28
2022-09-04T22:02:36.872Z,6.72
2022-09-04T22:02:43.462Z,5.88
2022-09-04T22:05:26.328Z,5.82
2022-09-04T22:13:30.588Z,5.93
2022-09-04T22:13:43.194Z,6.30
2022-09-04T22:14:12.005Z,6.45
2022-09-04T22:17:03.510Z,6.60
2022-09-04T22:19:49.731Z,7.53
2022-09-04T22:22:58.054Z,6.93
2022-09-04T22:25:50.056Z,6.90
2022-09-04T22:29:39.606Z,7.07
2022-09-04T22:32:34.756Z,6.82
2022-09-04T22:35:39.583Z,7.85
2022-09-04T22:38:37.705Z,7.93
2022-09-04T22:41:33.767Z,7.05
2022-09-04T22:44:17.147Z,6.50
2022-09-04T22:47:32.087Z,6.65
2022-09-04T22:50:49.601Z,6.95
2022-09-04T22:53:55.035Z,7.22
2022-09-04T22:59:26.685Z,7.80
2022-09-04T23:02:46.039Z,7.13
2022-09-04T23:05:48.268Z,7.55
2022-09-04T23:13:49.525Z,6.40
2022-09-04T23:13:51.502Z,7.78
2022-09-04T23:15:08.691Z,8.10
2022-09-04T23:18:12.854Z,7.95
2022-09-04T23:26:36.163Z,8.18
2022-09-04T23:26:45.852Z,8.60
2022-09-04T23:27:22.389Z,9.10
2022-09-04T23:30:25.001Z,8.95
2022-09-04T23:33:27.977Z,9.32
2022-09-04T23:36:05.859Z,9.13
2022-09-04T23:39:10.386Z,8.90
2022-09-04T23:41:57.898Z,8.73
2022-09-04T23:45:00.350Z,9.73
2022-09-04T23:48:06.176Z,9.70
2022-09-04T23:50:48.700Z,8.75
2022-09-04T23:53:32.526Z,8.65
2022-09-04T23:59:09.453Z,9.05
